sensor_id;sensor_type;location;lat;lon;timestamp;P1;durP1;ratioP1;P2;durP2;ratioP2
50932;SDS011;36921;49.006;9.292;2023-04-25T00:02:03;5.60;;;4.05;;
50932;SDS011;36921;49.006;9.292;2023-04-25T00:04:29;6.20;;;4.03;;
50932;SDS011;36921;49.006;9.292;2023-04-25T00:06:54;7.95;;;3.78;;
50932;SDS011;36921;49.006;9.292;2023-04-25T00:09:20;7.07;;;3.38;;
50932;SDS011;36921;49.006;9.292;2023-04-25T00:11:46;5.85;;;3.08;;
50932;SDS011;36921;49.006;9.292;2023-04-25T00:14:11;6.50;;;3.00;;
50932;SDS011;36921;49.006;9.292;2023-04-25T00:16:37;5.43;;;2.85;;
50932;SDS011;36921;49.006;9.292;2023-04-25T00:19:02;4.57;;;2.75;;
50932;SDS011;36921;49.006;9.292;2023-04-25T00:21:28;8.60;;;3.25;;
50932;SDS011;36921;49.006;9.292;2023-04-25T00:23:54;4.15;;;3.03;;
50932;SDS011;36921;49.006;9.292;2023-04-25T00:26:20;4.78;;;2.85;;
50932;SDS011;36921;49.006;9.292;2023-04-25T00:28:48;6.88;;;2.80;;
50932;SDS011;36921;49.006;9.292;2023-04-25T00:31:13;3.72;;;2.50;;
50932;SDS011;36921;49.006;9.292;2023-04-25T00:33:39;4.18;;;2.35;;
50932;SDS011;36921;49.006;9.292;2023-04-25T00:36:04;7.38;;;3.13;;
50932;SDS011;36921;49.006;9.292;2023-04-25T00:38:30;4.53;;;3.08;;
50932;SDS011;36921;49.006;9.292;2023-04-25T00:40:56;4.55;;;3.25;;
50932;SDS011;36921;49.006;9.292;2023-04-25T00:43:22;4.72;;;2.90;;
50932;SDS011;36921;49.006;9.292;2023-04-25T00:45:50;5.30;;;3.53;;
50932;SDS011;36921;49.006;9.292;2023-04-25T00:48:17;6.13;;;3.70;;
50932;SDS011;36921;49.006;9.292;2023-04-25T00:50:45;5.57;;;3.10;;
50932;SDS011;36921;49.006;9.292;2023-04-25T00:53:16;7.85;;;3.70;;
50932;SDS011;36921;49.006;9.292;2023-04-25T00:55:41;5.03;;;3.05;;
50932;SDS011;36921;49.006;9.292;2023-04-25T00:58:07;5.07;;;3.15;;
50932;SDS011;36921;49.006;9.292;2023-04-25T01:00:32;6.50;;;2.78;;
50932;SDS011;36921;49.006;9.292;2023-04-25T01:02:57;9.23;;;2.88;;
50932;SDS011;36921;49.006;9.292;2023-04-25T01:05:23;7.55;;;3.40;;
50932;SDS011;36921;49.006;9.292;2023-04-25T01:07:48;6.85;;;3.22;;
50932;SDS011;36921;49.006;9.292;2023-04-25T01:10:14;5.68;;;2.97;;
50932;SDS011;36921;49.006;9.292;2023-04-25T01:12:40;4.72;;;3.33;;
50932;SDS011;36921;49.006;9.292;2023-04-25T01:15:06;5.15;;;3.05;;
50932;SDS011;36921;49.006;9.292;2023-04-25T01:17:31;6.55;;;3.10;;
50932;SDS011;36921;49.006;9.292;2023-04-25T01:20:01;7.13;;;3.10;;
50932;SDS011;36921;49.006;9.292;2023-04-25T01:22:28;5.82;;;3.10;;
50932;SDS011;36921;49.006;9.292;2023-04-25T01:24:54;5.28;;;3.22;;
50932;SDS011;36921;49.006;9.292;2023-04-25T01:27:19;5.53;;;3.50;;
50932;SDS011;36921;49.006;9.292;2023-04-25T01:29:45;4.07;;;2.70;;
50932;SDS011;36921;49.006;9.292;2023-04-25T01:32:11;5.95;;;3.40;;
50932;SDS011;36921;49.006;9.292;2023-04-25T01:34:38;9.70;;;3.80;;
50932;SDS011;36921;49.006;9.292;2023-04-25T01:37:03;7.30;;;4.00;;
50932;SDS011;36921;49.006;9.292;2023-04-25T01:39:29;5.57;;;3.47;;
50932;SDS011;36921;49.006;9.292;2023-04-25T01:41:54;7.93;;;3.53;;
50932;SDS011;36921;49.006;9.292;2023-04-25T01:44:20;6.13;;;3.38;;
50932;SDS011;36921;49.006;9.292;2023-04-25T01:46:46;6.90;;;3.40;;
50932;SDS011;36921;49.006;9.292;2023-04-25T01:49:11;4.28;;;3.20;;
50932;SDS011;36921;49.006;9.292;2023-04-25T01:51:37;4.13;;;3.10;;
50932;SDS011;36921;49.006;9.292;2023-04-25T01:54:02;5.07;;;3.50;;
50932;SDS011;36921;49.006;9.292;2023-04-25T01:56:31;4.80;;;3.03;;
50932;SDS011;36921;49.006;9.292;2023-04-25T01:58:57;4.97;;;3.20;;
50932;SDS011;36921;49.006;9.292;2023-04-25T02:01:23;5.40;;;3.35;;
50932;SDS011;36921;49.006;9.292;2023-04-25T02:03:48;5.18;;;3.42;;
50932;SDS011;36921;49.006;9.292;2023-04-25T02:06:17;5.60;;;3.40;;
50932;SDS011;36921;49.006;9.292;2023-04-25T02:08:42;4.30;;;2.93;;
50932;SDS011;36921;49.006;9.292;2023-04-25T02:11:08;7.05;;;3.67;;
50932;SDS011;36921;49.006;9.292;2023-04-25T02:13:33;6.35;;;3.53;;
50932;SDS011;36921;49.006;9.292;2023-04-25T02:15:59;7.43;;;3.55;;
50932;SDS011;36921;49.006;9.292;2023-04-25T02:18:24;6.20;;;3.30;;
50932;SDS011;36921;49.006;9.292;2023-04-25T02:20:52;6.95;;;3.10;;
50932;SDS011;36921;49.006;9.292;2023-04-25T02:23:17;5.82;;;3.40;;
50932;SDS011;36921;49.006;9.292;2023-04-25T02:26:02;4.30;;;3.05;;
50932;SDS011;36921;49.006;9.292;2023-04-25T02:28:28;7.90;;;3.22;;
50932;SDS011;36921;49.006;9.292;2023-04-25T02:30:53;8.23;;;3.22;;
50932;SDS011;36921;49.006;9.292;2023-04-25T02:33:18;7.10;;;3.55;;
50932;SDS011;36921;49.006;9.292;2023-04-25T02:35:45;6.82;;;3.42;;
50932;SDS011;36921;49.006;9.292;2023-04-25T02:38:11;6.53;;;3.50;;
50932;SDS011;36921;49.006;9.292;2023-04-25T02:40:36;11.77;;;3.53;;
50932;SDS011;36921;49.006;9.292;2023-04-25T02:43:01;7.15;;;3.72;;
50932;SDS011;36921;49.006;9.292;2023-04-25T02:45:27;5.25;;;2.92;;
50932;SDS011;36921;49.006;9.292;2023-04-25T02:47:52;7.68;;;3.50;;
50932;SDS011;36921;49.006;9.292;2023-04-25T02:50:17;5.13;;;3.15;;
50932;SDS011;36921;49.006;9.292;2023-04-25T02:52:43;4.28;;;2.95;;
50932;SDS011;36921;49.006;9.292;2023-04-25T02:55:08;4.50;;;3.00;;
50932;SDS011;36921;49.006;9.292;2023-04-25T02:57:35;6.15;;;3.35;;
50932;SDS011;36921;49.006;9.292;2023-04-25T03:00:01;5.45;;;2.92;;
50932;SDS011;36921;49.006;9.292;2023-04-25T03:02:26;6.18;;;3.10;;
50932;SDS011;36921;49.006;9.292;2023-04-25T03:04:51;4.43;;;3.00;;
50932;SDS011;36921;49.006;9.292;2023-04-25T03:07:17;3.95;;;3.10;;
50932;SDS011;36921;49.006;9.292;2023-04-25T03:09:42;6.28;;;3.30;;
50932;SDS011;36921;49.006;9.292;2023-04-25T03:12:08;6.07;;;3.20;;
50932;SDS011;36921;49.006;9.292;2023-04-25T03:14:33;4.50;;;3.00;;
50932;SDS011;36921;49.006;9.292;2023-04-25T03:16:58;5.32;;;3.25;;
50932;SDS011;36921;49.006;9.292;2023-04-25T03:19:24;5.30;;;3.05;;
50932;SDS011;36921;49.006;9.292;2023-04-25T03:21:49;8.85;;;3.40;;
50932;SDS011;36921;49.006;9.292;2023-04-25T03:24:14;5.70;;;3.33;;
50932;SDS011;36921;49.006;9.292;2023-04-25T03:26:40;5.03;;;3.35;;
50932;SDS011;36921;49.006;9.292;2023-04-25T03:29:05;5.60;;;2.92;;
50932;SDS011;36921;49.006;9.292;2023-04-25T03:31:31;5.30;;;3.33;;
50932;SDS011;36921;49.006;9.292;2023-04-25T03:33:56;4.10;;;3.10;;
50932;SDS011;36921;49.006;9.292;2023-04-25T03:36:21;4.93;;;3.22;;
50932;SDS011;36921;49.006;9.292;2023-04-25T03:38:47;6.35;;;3.03;;
50932;SDS011;36921;49.006;9.292;2023-04-25T03:41:14;7.68;;;3.58;;
50932;SDS011;36921;49.006;9.292;2023-04-25T03:43:39;4.82;;;3.78;;
50932;SDS011;36921;49.006;9.292;2023-04-25T03:46:06;6.28;;;3.33;;
50932;SDS011;36921;49.006;9.292;2023-04-25T03:48:31;5.75;;;3.10;;
50932;SDS011;36921;49.006;9.292;2023-04-25T03:50:56;6.22;;;3.28;;
50932;SDS011;36921;49.006;9.292;2023-04-25T03:53:22;5.57;;;3.15;;
50932;SDS011;36921;49.006;9.292;2023-04-25T03:55:47;10.52;;;3.08;;
50932;SDS011;36921;49.006;9.292;2023-04-25T03:58:12;5.72;;;3.75;;
50932;SDS011;36921;49.006;9.292;2023-04-25T04:00:38;8.07;;;3.22;;
50932;SDS011;36921;49.006;9.292;2023-04-25T04:03:03;6.25;;;3.35;;
50932;SDS011;36921;49.006;9.292;2023-04-25T04:05:28;6.15;;;3.58;;
50932;SDS011;36921;49.006;9.292;2023-04-25T04:07:54;7.70;;;3.80;;
50932;SDS011;36921;49.006;9.292;2023-04-25T04:10:20;8.90;;;3.10;;
50932;SDS011;36921;49.006;9.292;2023-04-25T04:12:45;8.07;;;3.33;;
50932;SDS011;36921;49.006;9.292;2023-04-25T04:15:11;5.75;;;3.40;;
50932;SDS011;36921;49.006;9.292;2023-04-25T04:17:37;6.15;;;3.13;;
50932;SDS011;36921;49.006;9.292;2023-04-25T04:20:02;7.72;;;3.67;;
50932;SDS011;36921;49.006;9.292;2023-04-25T04:22:28;4.75;;;3.08;;
50932;SDS011;36921;49.006;9.292;2023-04-25T04:24:54;6.93;;;3.05;;
50932;SDS011;36921;49.006;9.292;2023-04-25T04:27:19;5.25;;;3.63;;
50932;SDS011;36921;49.006;9.292;2023-04-25T04:29:46;5.35;;;3.67;;
50932;SDS011;36921;49.006;9.292;2023-04-25T04:32:12;5.65;;;3.30;;
50932;SDS011;36921;49.006;9.292;2023-04-25T04:34:38;4.75;;;3.25;;
50932;SDS011;36921;49.006;9.292;2023-04-25T04:37:04;6.43;;;3.33;;
50932;SDS011;36921;49.006;9.292;2023-04-25T04:39:30;5.88;;;2.90;;
50932;SDS011;36921;49.006;9.292;2023-04-25T04:41:55;5.55;;;3.25;;
50932;SDS011;36921;49.006;9.292;2023-04-25T04:44:20;5.22;;;3.42;;
50932;SDS011;36921;49.006;9.292;2023-04-25T04:46:46;4.90;;;3.35;;
50932;SDS011;36921;49.006;9.292;2023-04-25T04:49:12;6.03;;;3.50;;
50932;SDS011;36921;49.006;9.292;2023-04-25T04:51:38;4.78;;;3.08;;
50932;SDS011;36921;49.006;9.292;2023-04-25T04:54:05;5.32;;;3.60;;
50932;SDS011;36921;49.006;9.292;2023-04-25T04:56:31;6.50;;;3.50;;
50932;SDS011;36921;49.006;9.292;2023-04-25T04:58:57;5.97;;;3.35;;
50932;SDS011;36921;49.006;9.292;2023-04-25T05:01:22;5.95;;;3.28;;
50932;SDS011;36921;49.006;9.292;2023-04-25T05:04:10;5.93;;;3.33;;
50932;SDS011;36921;49.006;9.292;2023-04-25T05:06:35;8.48;;;3.40;;
50932;SDS011;36921;49.006;9.292;2023-04-25T05:09:01;6.47;;;4.05;;
50932;SDS011;36921;49.006;9.292;2023-04-25T05:11:26;5.22;;;3.50;;
50932;SDS011;36921;49.006;9.292;2023-04-25T05:13:52;6.07;;;3.40;;
50932;SDS011;36921;49.006;9.292;2023-04-25T05:16:17;4.85;;;3.22;;
50932;SDS011;36921;49.006;9.292;2023-04-25T05:18:43;4.70;;;3.30;;
50932;SDS011;36921;49.006;9.292;2023-04-25T05:21:08;6.85;;;3.47;;
50932;SDS011;36921;49.006;9.292;2023-04-25T05:23:34;6.65;;;4.28;;
50932;SDS011;36921;49.006;9.292;2023-04-25T05:25:59;5.78;;;3.65;;
50932;SDS011;36921;49.006;9.292;2023-04-25T05:28:25;6.93;;;3.60;;
50932;SDS011;36921;49.006;9.292;2023-04-25T05:30:50;6.03;;;3.58;;
50932;SDS011;36921;49.006;9.292;2023-04-25T05:33:15;5.88;;;3.65;;
50932;SDS011;36921;49.006;9.292;2023-04-25T05:35:41;6.32;;;3.63;;
50932;SDS011;36921;49.006;9.292;2023-04-25T05:38:07;6.82;;;3.72;;
50932;SDS011;36921;49.006;9.292;2023-04-25T05:40:32;4.45;;;3.40;;
50932;SDS011;36921;49.006;9.292;2023-04-25T05:42:57;5.20;;;3.20;;
50932;SDS011;36921;49.006;9.292;2023-04-25T05:45:23;5.63;;;3.22;;
50932;SDS011;36921;49.006;9.292;2023-04-25T05:47:48;5.97;;;3.20;;
50932;SDS011;36921;49.006;9.292;2023-04-25T05:50:13;4.93;;;3.33;;
50932;SDS011;36921;49.006;9.292;2023-04-25T05:52:39;7.93;;;3.40;;
50932;SDS011;36921;49.006;9.292;2023-04-25T05:55:05;5.70;;;3.00;;
50932;SDS011;36921;49.006;9.292;2023-04-25T05:57:30;5.82;;;3.50;;
50932;SDS011;36921;49.006;9.292;2023-04-25T05:59:56;5.13;;;3.20;;
50932;SDS011;36921;49.006;9.292;2023-04-25T06:02:21;4.68;;;2.83;;
50932;SDS011;36921;49.006;9.292;2023-04-25T06:04:48;4.22;;;2.65;;
50932;SDS011;36921;49.006;9.292;2023-04-25T06:07:15;3.85;;;2.50;;
50932;SDS011;36921;49.006;9.292;2023-04-25T06:09:40;4.75;;;2.50;;
50932;SDS011;36921;49.006;9.292;2023-04-25T06:12:06;5.35;;;2.58;;
50932;SDS011;36921;49.006;9.292;2023-04-25T06:14:31;4.63;;;2.33;;
50932;SDS011;36921;49.006;9.292;2023-04-25T06:16:59;3.83;;;2.60;;
50932;SDS011;36921;49.006;9.292;2023-04-25T06:19:24;3.15;;;2.33;;
50932;SDS011;36921;49.006;9.292;2023-04-25T06:21:49;5.30;;;2.40;;
50932;SDS011;36921;49.006;9.292;2023-04-25T06:24:15;3.63;;;2.53;;
50932;SDS011;36921;49.006;9.292;2023-04-25T06:26:40;2.95;;;1.90;;
50932;SDS011;36921;49.006;9.292;2023-04-25T06:29:05;4.15;;;2.25;;
50932;SDS011;36921;49.006;9.292;2023-04-25T06:31:31;10.55;;;2.47;;
50932;SDS011;36921;49.006;9.292;2023-04-25T06:33:59;5.10;;;2.20;;
50932;SDS011;36921;49.006;9.292;2023-04-25T06:36:24;3.38;;;2.00;;
50932;SDS011;36921;49.006;9.292;2023-04-25T06:38:51;4.03;;;2.47;;
50932;SDS011;36921;49.006;9.292;2023-04-25T06:41:17;2.67;;;2.03;;
50932;SDS011;36921;49.006;9.292;2023-04-25T06:43:42;3.60;;;2.30;;
50932;SDS011;36921;49.006;9.292;2023-04-25T06:46:08;3.65;;;2.25;;
50932;SDS011;36921;49.006;9.292;2023-04-25T06:48:34;2.90;;;2.00;;
50932;SDS011;36921;49.006;9.292;2023-04-25T06:51:00;3.63;;;2.17;;
50932;SDS011;36921;49.006;9.292;2023-04-25T06:53:25;3.60;;;2.00;;
50932;SDS011;36921;49.006;9.292;2023-04-25T06:55:50;2.58;;;1.88;;
50932;SDS011;36921;49.006;9.292;2023-04-25T06:58:16;3.13;;;2.20;;
50932;SDS011;36921;49.006;9.292;2023-04-25T07:00:41;3.13;;;2.00;;
50932;SDS011;36921;49.006;9.292;2023-04-25T07:03:07;2.80;;;2.13;;
50932;SDS011;36921;49.006;9.292;2023-04-25T07:05:32;4.28;;;2.78;;
50932;SDS011;36921;49.006;9.292;2023-04-25T07:07:57;3.78;;;2.40;;
50932;SDS011;36921;49.006;9.292;2023-04-25T07:10:23;4.00;;;2.70;;
50932;SDS011;36921;49.006;9.292;2023-04-25T07:12:48;4.22;;;2.00;;
50932;SDS011;36921;49.006;9.292;2023-04-25T07:15:13;3.05;;;2.35;;
50932;SDS011;36921;49.006;9.292;2023-04-25T07:17:38;3.47;;;1.95;;
50932;SDS011;36921;49.006;9.292;2023-04-25T07:20:04;4.45;;;2.60;;
50932;SDS011;36921;49.006;9.292;2023-04-25T07:22:31;4.55;;;2.60;;
50932;SDS011;36921;49.006;9.292;2023-04-25T07:24:57;3.78;;;2.42;;
50932;SDS011;36921;49.006;9.292;2023-04-25T07:27:22;4.95;;;3.25;;
50932;SDS011;36921;49.006;9.292;2023-04-25T07:29:48;7.20;;;3.83;;
50932;SDS011;36921;49.006;9.292;2023-04-25T07:32:13;5.82;;;4.07;;
50932;SDS011;36921;49.006;9.292;2023-04-25T07:34:38;5.88;;;3.70;;
50932;SDS011;36921;49.006;9.292;2023-04-25T07:37:04;5.40;;;3.92;;
50932;SDS011;36921;49.006;9.292;2023-04-25T07:39:30;6.00;;;4.28;;
50932;SDS011;36921;49.006;9.292;2023-04-25T07:41:56;6.40;;;4.55;;
50932;SDS011;36921;49.006;9.292;2023-04-25T07:44:23;7.10;;;4.82;;
50932;SDS011;36921;49.006;9.292;2023-04-25T07:46:48;7.13;;;4.90;;
50932;SDS011;36921;49.006;9.292;2023-04-25T07:49:14;7.97;;;5.53;;
50932;SDS011;36921;49.006;9.292;2023-04-25T07:51:40;7.85;;;5.55;;
50932;SDS011;36921;49.006;9.292;2023-04-25T07:54:06;11.48;;;9.73;;
50932;SDS011;36921;49.006;9.292;2023-04-25T07:56:31;10.63;;;7.53;;
50932;SDS011;36921;49.006;9.292;2023-04-25T07:58:57;7.43;;;5.20;;
50932;SDS011;36921;49.006;9.292;2023-04-25T08:01:22;8.57;;;4.47;;
50932;SDS011;36921;49.006;9.292;2023-04-25T08:03:47;9.48;;;4.85;;
50932;SDS011;36921;49.006;9.292;2023-04-25T08:06:13;9.02;;;4.95;;
50932;SDS011;36921;49.006;9.292;2023-04-25T08:08:39;7.60;;;5.13;;
50932;SDS011;36921;49.006;9.292;2023-04-25T08:11:04;7.75;;;5.25;;
50932;SDS011;36921;49.006;9.292;2023-04-25T08:13:30;8.80;;;4.43;;
50932;SDS011;36921;49.006;9.292;2023-04-25T08:15:55;8.35;;;4.95;;
50932;SDS011;36921;49.006;9.292;2023-04-25T08:18:20;6.45;;;4.38;;
50932;SDS011;36921;49.006;9.292;2023-04-25T08:20:46;7.18;;;4.55;;
50932;SDS011;36921;49.006;9.292;2023-04-25T08:23:11;9.15;;;4.50;;
50932;SDS011;36921;49.006;9.292;2023-04-25T08:25:36;8.93;;;4.47;;
50932;SDS011;36921;49.006;9.292;2023-04-25T08:28:02;9.45;;;4.88;;
50932;SDS011;36921;49.006;9.292;2023-04-25T08:30:28;7.85;;;4.97;;
50932;SDS011;36921;49.006;9.292;2023-04-25T08:32:54;16.02;;;5.15;;
50932;SDS011;36921;49.006;9.292;2023-04-25T08:35:20;9.77;;;5.40;;
50932;SDS011;36921;49.006;9.292;2023-04-25T08:37:46;7.93;;;5.15;;
50932;SDS011;36921;49.006;9.292;2023-04-25T08:40:14;9.88;;;5.53;;
50932;SDS011;36921;49.006;9.292;2023-04-25T08:42:40;8.00;;;5.38;;
50932;SDS011;36921;49.006;9.292;2023-04-25T08:45:07;9.10;;;5.43;;
50932;SDS011;36921;49.006;9.292;2023-04-25T08:47:34;7.32;;;5.00;;
50932;SDS011;36921;49.006;9.292;2023-04-25T08:50:02;8.25;;;5.50;;
50932;SDS011;36921;49.006;9.292;2023-04-25T08:52:30;6.75;;;5.15;;
50932;SDS011;36921;49.006;9.292;2023-04-25T08:55:01;23.27;;;5.25;;
50932;SDS011;36921;49.006;9.292;2023-04-25T08:57:27;6.68;;;5.15;;
50932;SDS011;36921;49.006;9.292;2023-04-25T08:59:55;8.68;;;5.40;;
50932;SDS011;36921;49.006;9.292;2023-04-25T09:02:25;7.13;;;4.97;;
50932;SDS011;36921;49.006;9.292;2023-04-25T09:04:50;9.77;;;4.60;;
50932;SDS011;36921;49.006;9.292;2023-04-25T09:07:19;6.65;;;5.00;;
50932;SDS011;36921;49.006;9.292;2023-04-25T09:09:46;12.73;;;8.30;;
50932;SDS011;36921;49.006;9.292;2023-04-25T09:12:12;13.45;;;8.63;;
50932;SDS011;36921;49.006;9.292;2023-04-25T09:14:38;9.35;;;6.70;;
50932;SDS011;36921;49.006;9.292;2023-04-25T09:17:04;9.13;;;5.63;;
50932;SDS011;36921;49.006;9.292;2023-04-25T09:19:35;13.63;;;8.52;;
50932;SDS011;36921;49.006;9.292;2023-04-25T09:22:05;12.73;;;8.00;;
50932;SDS011;36921;49.006;9.292;2023-04-25T09:24:35;10.65;;;6.80;;
50932;SDS011;36921;49.006;9.292;2023-04-25T09:27:12;8.63;;;5.90;;
50932;SDS011;36921;49.006;9.292;2023-04-25T09:29:43;7.90;;;5.22;;
50932;SDS011;36921;49.006;9.292;2023-04-25T09:32:14;8.30;;;5.95;;
50932;SDS011;36921;49.006;9.292;2023-04-25T09:34:44;8.50;;;5.57;;
50932;SDS011;36921;49.006;9.292;2023-04-25T09:37:13;10.38;;;6.45;;
50932;SDS011;36921;49.006;9.292;2023-04-25T09:39:53;9.50;;;6.28;;
50932;SDS011;36921;49.006;9.292;2023-04-25T09:42:23;11.88;;;5.82;;
50932;SDS011;36921;49.006;9.292;2023-04-25T09:44:51;8.40;;;5.88;;
50932;SDS011;36921;49.006;9.292;2023-04-25T09:47:17;7.05;;;5.07;;
50932;SDS011;36921;49.006;9.292;2023-04-25T09:49:46;8.35;;;4.97;;
50932;SDS011;36921;49.006;9.292;2023-04-25T09:52:15;7.43;;;4.90;;
50932;SDS011;36921;49.006;9.292;2023-04-25T09:54:45;6.60;;;5.10;;
50932;SDS011;36921;49.006;9.292;2023-04-25T09:57:12;6.88;;;5.22;;
50932;SDS011;36921;49.006;9.292;2023-04-25T09:59:49;7.20;;;4.93;;
50932;SDS011;36921;49.006;9.292;2023-04-25T10:02:15;8.80;;;4.03;;
50932;SDS011;36921;49.006;9.292;2023-04-25T10:07:10;4.60;;;3.08;;
50932;SDS011;36921;49.006;9.292;2023-04-25T10:09:36;3.67;;;2.70;;
50932;SDS011;36921;49.006;9.292;2023-04-25T10:12:04;5.30;;;3.33;;
50932;SDS011;36921;49.006;9.292;2023-04-25T10:14:30;6.80;;;3.47;;
50932;SDS011;36921;49.006;9.292;2023-04-25T10:17:01;6.10;;;3.63;;
50932;SDS011;36921;49.006;9.292;2023-04-25T10:19:27;6.18;;;3.63;;
50932;SDS011;36921;49.006;9.292;2023-04-25T10:22:14;12.18;;;4.68;;
50932;SDS011;36921;49.006;9.292;2023-04-25T10:24:44;9.77;;;4.50;;
50932;SDS011;36921;49.006;9.292;2023-04-25T10:27:11;9.20;;;4.43;;
50932;SDS011;36921;49.006;9.292;2023-04-25T10:29:37;8.82;;;5.25;;
50932;SDS011;36921;49.006;9.292;2023-04-25T10:32:03;7.93;;;5.10;;
50932;SDS011;36921;49.006;9.292;2023-04-25T10:34:41;8.77;;;4.90;;
50932;SDS011;36921;49.006;9.292;2023-04-25T10:37:08;8.80;;;4.97;;
50932;SDS011;36921;49.006;9.292;2023-04-25T10:39:35;11.20;;;5.68;;
50932;SDS011;36921;49.006;9.292;2023-04-25T10:42:03;10.20;;;6.00;;
50932;SDS011;36921;49.006;9.292;2023-04-25T10:44:29;14.40;;;7.57;;
50932;SDS011;36921;49.006;9.292;2023-04-25T10:46:56;14.88;;;7.40;;
50932;SDS011;36921;49.006;9.292;2023-04-25T10:49:29;11.98;;;7.30;;
50932;SDS011;36921;49.006;9.292;2023-04-25T10:54:51;10.93;;;6.63;;
50932;SDS011;36921;49.006;9.292;2023-04-25T11:00:01;10.82;;;6.57;;
50932;SDS011;36921;49.006;9.292;2023-04-25T11:02:58;11.00;;;6.22;;
50932;SDS011;36921;49.006;9.292;2023-04-25T11:07:57;10.73;;;5.28;;
50932;SDS011;36921;49.006;9.292;2023-04-25T11:10:26;10.63;;;5.38;;
50932;SDS011;36921;49.006;9.292;2023-04-25T11:12:52;8.95;;;4.93;;
50932;SDS011;36921;49.006;9.292;2023-04-25T11:15:18;7.93;;;5.13;;
50932;SDS011;36921;49.006;9.292;2023-04-25T11:17:43;9.32;;;5.18;;
50932;SDS011;36921;49.006;9.292;2023-04-25T11:20:11;9.85;;;6.13;;
50932;SDS011;36921;49.006;9.292;2023-04-25T11:22:39;6.07;;;4.03;;
50932;SDS011;36921;49.006;9.292;2023-04-25T11:25:09;6.35;;;4.18;;
50932;SDS011;36921;49.006;9.292;2023-04-25T11:27:55;7.00;;;4.28;;
50932;SDS011;36921;49.006;9.292;2023-04-25T11:30:23;7.18;;;3.92;;
50932;SDS011;36921;49.006;9.292;2023-04-25T11:32:49;4.57;;;3.47;;
50932;SDS011;36921;49.006;9.292;2023-04-25T11:35:16;8.10;;;3.28;;
50932;SDS011;36921;49.006;9.292;2023-04-25T11:37:42;5.85;;;2.90;;
50932;SDS011;36921;49.006;9.292;2023-04-25T11:40:08;5.15;;;3.13;;
50932;SDS011;36921;49.006;9.292;2023-04-25T11:42:38;4.38;;;2.83;;
50932;SDS011;36921;49.006;9.292;2023-04-25T11:45:10;5.95;;;2.50;;
50932;SDS011;36921;49.006;9.292;2023-04-25T11:47:36;3.58;;;2.35;;
50932;SDS011;36921;49.006;9.292;2023-04-25T11:50:02;4.55;;;2.67;;
50932;SDS011;36921;49.006;9.292;2023-04-25T11:55:15;4.75;;;2.30;;
50932;SDS011;36921;49.006;9.292;2023-04-25T11:57:45;4.82;;;2.88;;
50932;SDS011;36921;49.006;9.292;2023-04-25T12:00:16;4.90;;;2.85;;
50932;SDS011;36921;49.006;9.292;2023-04-25T12:02:46;4.97;;;3.08;;
50932;SDS011;36921;49.006;9.292;2023-04-25T12:05:15;5.32;;;3.17;;
50932;SDS011;36921;49.006;9.292;2023-04-25T12:07:41;5.10;;;3.70;;
50932;SDS011;36921;49.006;9.292;2023-04-25T12:10:08;6.43;;;3.38;;
50932;SDS011;36921;49.006;9.292;2023-04-25T12:12:35;6.25;;;3.53;;
50932;SDS011;36921;49.006;9.292;2023-04-25T12:15:08;8.48;;;3.80;;
50932;SDS011;36921;49.006;9.292;2023-04-25T12:17:34;4.97;;;3.58;;
50932;SDS011;36921;49.006;9.292;2023-04-25T12:20:05;5.15;;;3.50;;
50932;SDS011;36921;49.006;9.292;2023-04-25T12:22:34;7.80;;;4.25;;
50932;SDS011;36921;49.006;9.292;2023-04-25T12:25:01;6.10;;;3.92;;
50932;SDS011;36921;49.006;9.292;2023-04-25T12:27:30;7.82;;;4.15;;
50932;SDS011;36921;49.006;9.292;2023-04-25T12:29:56;6.13;;;4.15;;
50932;SDS011;36921;49.006;9.292;2023-04-25T12:32:22;10.48;;;4.57;;
50932;SDS011;36921;49.006;9.292;2023-04-25T12:34:48;7.93;;;4.18;;
50932;SDS011;36921;49.006;9.292;2023-04-25T12:37:13;6.75;;;3.70;;
50932;SDS011;36921;49.006;9.292;2023-04-25T12:39:39;11.27;;;4.30;;
50932;SDS011;36921;49.006;9.292;2023-04-25T12:42:04;7.10;;;3.25;;
50932;SDS011;36921;49.006;9.292;2023-04-25T12:44:30;4.78;;;3.47;;
50932;SDS011;36921;49.006;9.292;2023-04-25T12:46:55;6.20;;;3.63;;
50932;SDS011;36921;49.006;9.292;2023-04-25T12:49:21;7.70;;;4.30;;
50932;SDS011;36921;49.006;9.292;2023-04-25T12:51:46;6.97;;;4.00;;
50932;SDS011;36921;49.006;9.292;2023-04-25T12:54:16;5.40;;;3.75;;
50932;SDS011;36921;49.006;9.292;2023-04-25T12:56:41;8.55;;;4.20;;
50932;SDS011;36921;49.006;9.292;2023-04-25T12:59:07;10.85;;;4.40;;
50932;SDS011;36921;49.006;9.292;2023-04-25T13:01:32;8.23;;;4.57;;
50932;SDS011;36921;49.006;9.292;2023-04-25T13:03:59;9.15;;;4.95;;
50932;SDS011;36921;49.006;9.292;2023-04-25T13:06:24;7.88;;;4.13;;
50932;SDS011;36921;49.006;9.292;2023-04-25T13:08:51;8.38;;;4.65;;
50932;SDS011;36921;49.006;9.292;2023-04-25T13:11:16;8.10;;;4.97;;
50932;SDS011;36921;49.006;9.292;2023-04-25T13:13:42;8.25;;;4.30;;
50932;SDS011;36921;49.006;9.292;2023-04-25T13:16:08;10.48;;;5.30;;
50932;SDS011;36921;49.006;9.292;2023-04-25T13:18:34;10.82;;;5.63;;
50932;SDS011;36921;49.006;9.292;2023-04-25T13:20:59;9.00;;;6.13;;
50932;SDS011;36921;49.006;9.292;2023-04-25T13:23:26;12.23;;;6.28;;
50932;SDS011;36921;49.006;9.292;2023-04-25T13:25:53;10.10;;;6.35;;
50932;SDS011;36921;49.006;9.292;2023-04-25T13:28:20;18.10;;;7.40;;
50932;SDS011;36921;49.006;9.292;2023-04-25T13:30:46;11.35;;;7.45;;
50932;SDS011;36921;49.006;9.292;2023-04-25T13:33:12;11.68;;;7.20;;
50932;SDS011;36921;49.006;9.292;2023-04-25T13:35:38;11.05;;;6.68;;
50932;SDS011;36921;49.006;9.292;2023-04-25T13:38:04;9.88;;;6.07;;
50932;SDS011;36921;49.006;9.292;2023-04-25T13:40:29;11.30;;;6.25;;
50932;SDS011;36921;49.006;9.292;2023-04-25T13:42:55;14.10;;;5.93;;
50932;SDS011;36921;49.006;9.292;2023-04-25T13:45:20;10.90;;;6.03;;
50932;SDS011;36921;49.006;9.292;2023-04-25T13:47:46;10.80;;;4.75;;
50932;SDS011;36921;49.006;9.292;2023-04-25T13:50:11;6.43;;;3.83;;
50932;SDS011;36921;49.006;9.292;2023-04-25T13:52:38;9.57;;;3.65;;
50932;SDS011;36921;49.006;9.292;2023-04-25T13:55:04;8.20;;;3.08;;
50932;SDS011;36921;49.006;9.292;2023-04-25T13:57:31;7.97;;;3.58;;
50932;SDS011;36921;49.006;9.292;2023-04-25T13:59:57;6.93;;;3.33;;
50932;SDS011;36921;49.006;9.292;2023-04-25T14:02:22;6.80;;;3.63;;
50932;SDS011;36921;49.006;9.292;2023-04-25T14:04:48;8.35;;;3.72;;
50932;SDS011;36921;49.006;9.292;2023-04-25T14:07:13;9.98;;;3.72;;
50932;SDS011;36921;49.006;9.292;2023-04-25T14:09:41;10.32;;;3.83;;
50932;SDS011;36921;49.006;9.292;2023-04-25T14:12:06;9.32;;;3.70;;
50932;SDS011;36921;49.006;9.292;2023-04-25T14:14:32;6.60;;;3.22;;
50932;SDS011;36921;49.006;9.292;2023-04-25T14:16:57;11.20;;;4.30;;
50932;SDS011;36921;49.006;9.292;2023-04-25T14:19:22;6.50;;;3.25;;
50932;SDS011;36921;49.006;9.292;2023-04-25T14:21:48;11.05;;;3.45;;
50932;SDS011;36921;49.006;9.292;2023-04-25T14:24:13;7.38;;;3.15;;
50932;SDS011;36921;49.006;9.292;2023-04-25T14:26:39;8.90;;;3.38;;
50932;SDS011;36921;49.006;9.292;2023-04-25T14:29:05;7.35;;;2.95;;
50932;SDS011;36921;49.006;9.292;2023-04-25T14:31:32;6.18;;;3.38;;
50932;SDS011;36921;49.006;9.292;2023-04-25T14:33:58;6.05;;;3.30;;
50932;SDS011;36921;49.006;9.292;2023-04-25T14:36:23;9.15;;;3.53;;
50932;SDS011;36921;49.006;9.292;2023-04-25T14:38:48;8.65;;;3.90;;
50932;SDS011;36921;49.006;9.292;2023-04-25T14:41:14;7.80;;;3.97;;
50932;SDS011;36921;49.006;9.292;2023-04-25T14:43:39;11.25;;;3.95;;
50932;SDS011;36921;49.006;9.292;2023-04-25T14:46:06;11.13;;;4.30;;
50932;SDS011;36921;49.006;9.292;2023-04-25T14:48:32;8.75;;;3.70;;
50932;SDS011;36921;49.006;9.292;2023-04-25T14:50:57;9.30;;;3.80;;
50932;SDS011;36921;49.006;9.292;2023-04-25T14:53:23;4.78;;;2.80;;
50932;SDS011;36921;49.006;9.292;2023-04-25T14:55:48;7.63;;;3.30;;